Time,TemperatureF,DewpointF,PressureIn,WindDirection,WindDirectionDegrees,WindSpeedMPH,WindSpeedGustMPH,Humidity,HourlyPrecipIn,Conditions,Clouds,dailyrainin,SolarRadiationWatts/m^2,SoftwareType,DateUTC
2013-07-03 00:00:00,56.0,50.0,-100.00,ENE,67,0.0,-999.0,79,-99.99,,,-99.99,0.000000,,2013-07-03 04:00:00,
2013-07-03 00:34:00,56.0,50.0,-100.00,ENE,67,0.0,-999.0,79,-99.99,,,-99.99,0.000000,,2013-07-03 04:34:00,
2013-07-03 00:43:00,56.0,50.0,-100.00,ENE,67,0.0,-999.0,79,-99.99,,,-99.99,0.000000,,2013-07-03 04:43:00,
2013-07-03 00:52:00,56.0,50.0,-100.00,ENE,67,0.0,-999.0,79,-99.99,,,-99.99,0.000000,,2013-07-03 04:52:00,
2013-07-03 01:00:00,54.0,50.0,-100.00,SSW,202,0.0,-999.0,84,-99.99,,,-99.99,0.000000,,2013-07-03 05:00:00,
2013-07-03 01:48:00,54.0,50.0,-100.00,SSW,202,0.0,-999.0,84,-99.99,,,-99.99,0.000000,,2013-07-03 05:48:00,
2013-07-03 02:00:00,55.0,50.0,-100.00,WNW,292,1.0,-999.0,83,-99.99,,,-99.99,0.000000,,2013-07-03 06:00:00,
2013-07-03 02:50:00,55.0,50.0,-100.00,WNW,292,1.0,-999.0,83,-99.99,,,-99.99,0.000000,,2013-07-03 06:50:00,
2013-07-03 02:58:00,55.0,50.0,-100.00,WNW,292,1.0,-999.0,83,-99.99,,,-99.99,0.000000,,2013-07-03 06:58:00,
2013-07-03 03:00:00,55.0,50.0,-100.00,North,0,0.0,-999.0,81,-99.99,,,-99.99,0.000000,,2013-07-03 07:00:00,
2013-07-03 03:48:00,55.0,50.0,-100.00,North,0,0.0,-999.0,81,-99.99,,,-99.99,0.000000,,2013-07-03 07:48:00,
2013-07-03 04:00:00,55.0,50.0,-100.00,NW,315,1.0,-999.0,82,-99.99,,,-99.99,0.000000,,2013-07-03 08:00:00,
2013-07-03 04:57:00,55.0,50.0,-100.00,NW,315,1.0,-999.0,82,-99.99,,,-99.99,0.000000,,2013-07-03 08:57:00,
2013-07-03 05:00:00,54.0,50.0,-100.00,SSW,202,0.0,-999.0,85,-99.99,,,-99.99,0.000000,,2013-07-03 09:00:00,
2013-07-03 05:47:00,54.0,50.0,-100.00,SSW,202,0.0,-999.0,85,-99.99,,,-99.99,0.000000,,2013-07-03 09:47:00,
2013-07-03 05:57:00,54.0,50.0,-100.00,SSW,202,0.0,-999.0,85,-99.99,,,-99.99,0.000000,,2013-07-03 09:57:00,
2013-07-03 06:00:00,52.0,49.0,-100.00,WSW,247,1.0,-999.0,90,-99.99,,,-99.99,0.000000,,2013-07-03 10:00:00,
2013-07-03 07:00:00,51.0,48.0,-100.00,West,270,1.0,-999.0,90,-99.99,,,-99.99,11.600000,,2013-07-03 11:00:00,
2013-07-03 07:45:00,51.0,48.0,-100.00,West,270,1.0,-999.0,90,-99.99,,,-99.99,11.600000,,2013-07-03 11:45:00,
2013-07-03 07:58:00,51.0,48.0,-100.00,West,270,1.0,-999.0,90,-99.99,,,-99.99,11.600000,,2013-07-03 11:58:00,
2013-07-03 08:00:00,52.0,49.0,-100.00,South,180,1.0,-999.0,87,-99.99,,,-99.99,76.559998,,2013-07-03 12:00:00,
2013-07-03 08:47:00,52.0,49.0,-100.00,South,180,1.0,-999.0,87,-99.99,,,-99.99,76.559998,,2013-07-03 12:47:00,
2013-07-03 09:00:00,62.0,51.0,-100.00,West,270,1.0,-999.0,67,-99.99,,,-99.99,272.600006,,2013-07-03 13:00:00,
2013-07-03 09:48:00,62.0,51.0,-100.00,West,270,1.0,-999.0,67,-99.99,,,-99.99,272.600006,,2013-07-03 13:48:00,
2013-07-03 09:55:00,62.0,51.0,-100.00,West,270,1.0,-999.0,67,-99.99,,,-99.99,272.600006,,2013-07-03 13:55:00,
2013-07-03 10:00:00,69.0,51.0,-100.00,SSE,157,1.0,-999.0,52,-99.99,,,-99.99,451.239990,,2013-07-03 14:00:00,
2013-07-03 10:48:00,69.0,51.0,-100.00,SSE,157,1.0,-999.0,52,-99.99,,,-99.99,451.239990,,2013-07-03 14:48:00,
2013-07-03 10:55:00,69.0,51.0,-100.00,SSE,157,1.0,-999.0,52,-99.99,,,-99.99,451.239990,,2013-07-03 14:55:00,
2013-07-03 11:00:00,71.0,47.0,-100.00,SSE,157,3.0,-999.0,43,-99.99,,,-99.99,584.640015,,2013-07-03 15:00:00,
2013-07-03 11:48:00,71.0,47.0,-100.00,SSE,157,3.0,-999.0,43,-99.99,,,-99.99,584.640015,,2013-07-03 15:48:00,
2013-07-03 11:57:00,71.0,47.0,-100.00,SSE,157,3.0,-999.0,43,-99.99,,,-99.99,584.640015,,2013-07-03 15:57:00,
2013-07-03 12:00:00,73.0,44.0,-100.00,SE,135,5.0,-999.0,35,-99.99,,,-99.99,697.159973,,2013-07-03 16:00:00,
2013-07-03 12:47:00,73.0,44.0,-100.00,SE,135,5.0,-999.0,35,-99.99,,,-99.99,697.159973,,2013-07-03 16:47:00,
2013-07-03 13:00:00,73.0,43.0,-100.00,SE,135,6.0,-999.0,34,-99.99,,,-99.99,642.640015,,2013-07-03 17:00:00,
2013-07-03 13:50:00,73.0,43.0,-100.00,SE,135,6.0,-999.0,34,-99.99,,,-99.99,642.640015,,2013-07-03 17:50:00,
2013-07-03 13:56:00,73.0,43.0,-100.00,SE,135,6.0,-999.0,34,-99.99,,,-99.99,642.640015,,2013-07-03 17:56:00,
2013-07-03 14:00:00,74.0,44.0,-100.00,SE,135,7.0,-999.0,34,-99.99,,,-99.99,839.840027,,2013-07-03 18:00:00,
2013-07-03 14:47:00,74.0,44.0,-100.00,SE,135,7.0,-999.0,34,-99.99,,,-99.99,839.840027,,2013-07-03 18:47:00,
2013-07-03 14:59:00,74.0,44.0,-100.00,SE,135,7.0,-999.0,34,-99.99,,,-99.99,839.840027,,2013-07-03 18:59:00,
2013-07-03 15:00:00,75.0,40.0,-100.00,SSE,157,6.0,-999.0,28,-99.99,,,-99.99,836.359985,,2013-07-03 19:00:00,
2013-07-03 15:49:00,75.0,40.0,-100.00,SSE,157,6.0,-999.0,28,-99.99,,,-99.99,836.359985,,2013-07-03 19:49:00,
2013-07-03 15:57:00,75.0,40.0,-100.00,SSE,157,6.0,-999.0,28,-99.99,,,-99.99,836.359985,,2013-07-03 19:57:00,
2013-07-03 16:00:00,76.0,42.0,-100.00,SE,135,5.0,-999.0,30,-99.99,,,-99.99,766.760010,,2013-07-03 20:00:00,
2013-07-03 16:47:00,76.0,42.0,-100.00,SE,135,5.0,-999.0,30,-99.99,,,-99.99,766.760010,,2013-07-03 20:47:00,
2013-07-03 16:56:00,76.0,42.0,-100.00,SE,135,5.0,-999.0,30,-99.99,,,-99.99,766.760010,,2013-07-03 20:56:00,
2013-07-03 17:00:00,75.0,46.0,-100.00,SSE,157,6.0,-999.0,35,-99.99,,,-99.99,676.280029,,2013-07-03 21:00:00,
2013-07-03 17:45:00,75.0,46.0,-100.00,SSE,157,6.0,-999.0,35,-99.99,,,-99.99,676.280029,,2013-07-03 21:45:00,
2013-07-03 17:55:00,75.0,46.0,-100.00,SSE,157,6.0,-999.0,35,-99.99,,,-99.99,676.280029,,2013-07-03 21:55:00,
2013-07-03 18:00:00,75.0,48.0,-100.00,SSE,157,6.0,-999.0,38,-99.99,,,-99.99,556.799988,,2013-07-03 22:00:00,
2013-07-03 18:46:00,75.0,48.0,-100.00,SSE,157,6.0,-999.0,38,-99.99,,,-99.99,556.799988,,2013-07-03 22:46:00,
2013-07-03 18:57:00,75.0,48.0,-100.00,SSE,157,6.0,-999.0,38,-99.99,,,-99.99,556.799988,,2013-07-03 22:57:00,
2013-07-03 19:00:00,73.0,48.0,-100.00,South,180,6.0,-999.0,41,-99.99,,,-99.99,393.239990,,2013-07-03 23:00:00,
2013-07-03 19:46:00,73.0,48.0,-100.00,South,180,6.0,-999.0,41,-99.99,,,-99.99,393.239990,,2013-07-03 23:46:00,
2013-07-03 19:56:00,73.0,48.0,-100.00,South,180,6.0,-999.0,41,-99.99,,,-99.99,393.239990,,2013-07-03 23:56:00,
2013-07-03 20:00:00,71.0,49.0,-100.00,SSE,157,5.0,-999.0,44,-99.99,,,-99.99,236.639999,,2013-07-04 00:00:00,
2013-07-03 20:50:00,71.0,49.0,-100.00,SSE,157,5.0,-999.0,44,-99.99,,,-99.99,236.639999,,2013-07-04 00:50:00,
2013-07-03 20:57:00,71.0,49.0,-100.00,SSE,157,5.0,-999.0,44,-99.99,,,-99.99,236.639999,,2013-07-04 00:57:00,
2013-07-03 21:00:00,68.0,49.0,-100.00,South,180,3.0,-999.0,50,-99.99,,,-99.99,67.279999,,2013-07-04 01:00:00,
2013-07-03 21:47:00,68.0,49.0,-100.00,South,180,3.0,-999.0,50,-99.99,,,-99.99,67.279999,,2013-07-04 01:47:00,
2013-07-03 21:56:00,68.0,49.0,-100.00,South,180,3.0,-999.0,50,-99.99,,,-99.99,67.279999,,2013-07-04 01:56:00,
2013-07-03 22:00:00,65.0,52.0,-100.00,SSE,157,1.0,-999.0,62,-99.99,,,-99.99,13.920000,,2013-07-04 02:00:00,
2013-07-03 22:49:00,65.0,52.0,-100.00,SSE,157,1.0,-999.0,62,-99.99,,,-99.99,13.920000,,2013-07-04 02:49:00,
2013-07-03 22:57:00,65.0,52.0,-100.00,SSE,157,1.0,-999.0,62,-99.99,,,-99.99,13.920000,,2013-07-04 02:57:00,
2013-07-03 23:00:00,63.0,54.0,-100.00,SSE,157,1.0,-999.0,72,-99.99,,,-99.99,0.000000,,2013-07-04 03:00:00,
2013-07-03 23:46:00,63.0,54.0,-100.00,SSE,157,1.0,-999.0,72,-99.99,,,-99.99,0.000000,,2013-07-04 03:46:00,
2013-07-03 23:57:00,63.0,54.0,-100.00,SSE,157,1.0,-999.0,72,-99.99,,,-99.99,0.000000,,2013-07-04 03:57:00,